Time;durP1;ratioP1;P1;durP2;ratioP2;P2;SDS_P1;SDS_P2;PMS_P1;PMS_P2;Temp;Humidity;BMP_temperature;BMP_pressure;BME280_temperature;BME280_humidity;BME280_pressure;Samples;Min_cycle;Max_cycle;Signal;HPM_P1;HPM_P2
2022/06/03 00:01:33;;;;;;;16.88;11.65;;;21.50;99.90;;;;;;4968771;28;20102;-77
2022/06/03 00:04:18;;;;;;;15.40;11.55;;;21.40;99.90;;;;;;5056237;28;20045;-77
2022/06/03 00:07:23;;;;;;;16.80;11.88;;;21.40;99.90;;;;;;5067567;28;20154;-77
2022/06/03 00:09:51;;;;;;;17.23;12.48;;;21.30;99.90;;;;;;5069584;28;20115;-77
2022/06/03 00:12:43;;;;;;;17.30;12.60;;;21.30;99.90;;;;;;5072200;28;20026;-77
2022/06/03 00:15:12;;;;;;;20.65;12.15;;;21.40;99.90;;;;;;5066941;28;20037;-77
2022/06/03 00:17:47;;;;;;;18.65;12.70;;;21.40;99.90;;;;;;5070841;28;20028;-78
2022/06/03 00:20:31;;;;;;;25.40;14.55;;;21.30;99.90;;;;;;5068922;28;20040;-78
2022/06/03 00:23:15;;;;;;;16.33;12.23;;;21.30;99.90;;;;;;5071936;28;20035;-77
2022/06/03 00:25:59;;;;;;;21.85;13.20;;;21.40;99.90;;;;;;5070234;28;20483;-77
2022/06/03 00:28:27;;;;;;;;;;;21.40;99.90;;;;;;5069747;28;20086;-76
2022/06/03 00:31:05;;;;;;;18.13;13.40;;;21.20;99.90;;;;;;5070370;28;20370;-77
2022/06/03 00:34:06;;;;;;;19.85;12.60;;;21.20;99.90;;;;;;5071641;28;20555;-77
2022/06/03 00:37:19;;;;;;;16.55;12.98;;;21.10;99.90;;;;;;5036465;28;20506;-77
2022/06/03 00:40:02;;;;;;;14.63;12.23;;;20.90;99.90;;;;;;5068954;28;20056;-77
2022/06/03 00:42:48;;;;;;;18.80;12.60;;;20.90;99.90;;;;;;5063587;28;20033;-78
2022/06/03 00:45:29;;;;;;;15.50;11.93;;;20.90;99.90;;;;;;5069511;28;20032;-77
2022/06/03 00:48:00;;;;;;;18.60;11.50;;;21.00;99.90;;;;;;5069415;28;20033;-74
2022/06/03 00:50:43;;;;;;;18.35;12.45;;;21.00;99.90;;;;;;5069934;28;20035;-77
2022/06/03 00:53:27;;;;;;;16.50;12.73;;;21.00;99.90;;;;;;5071065;28;20032;-78
2022/06/03 00:56:11;;;;;;;14.70;13.02;;;21.00;99.90;;;;;;5069118;28;20082;-77
2022/06/03 00:59:01;;;;;;;15.77;13.15;;;21.20;99.90;;;;;;5069897;28;20032;-78
2022/06/03 01:02:00;;;;;;;16.50;13.55;;;21.20;99.90;;;;;;5069570;28;20124;-77
2022/06/03 01:04:46;;;;;;;21.02;12.65;;;21.20;99.90;;;;;;5071099;28;20035;-77
2022/06/03 01:07:29;;;;;;;18.65;12.73;;;21.10;99.90;;;;;;5068679;28;20039;-78
2022/06/03 01:10:22;;;;;;;14.57;12.18;;;21.00;99.90;;;;;;5074429;28;20448;-78
2022/06/03 01:13:12;;;;;;;21.15;12.10;;;20.90;99.90;;;;;;5073731;28;20032;-77
2022/06/03 01:15:56;;;;;;;13.82;12.27;;;20.90;99.90;;;;;;5071865;28;20040;-77
2022/06/03 01:18:44;;;;;;;;;;;20.70;99.90;;;;;;5075291;28;20025;-77
2022/06/03 01:21:39;;;;;;;16.92;13.77;;;20.70;99.90;;;;;;5072796;28;20034;-77
2022/06/03 01:24:35;;;;;;;18.60;12.15;;;20.50;99.90;;;;;;5075444;28;20116;-74
2022/06/03 01:27:33;;;;;;;16.50;12.55;;;20.60;99.90;;;;;;5071027;28;20116;-77
2022/06/03 01:30:13;;;;;;;18.75;13.13;;;20.50;99.90;;;;;;5023459;28;20044;-77
2022/06/03 01:32:45;;;;;;;18.35;12.32;;;20.40;99.90;;;;;;5072767;28;20399;-77
2022/06/03 01:35:43;;;;;;;16.13;12.55;;;20.40;99.90;;;;;;5074291;28;20035;-77
2022/06/03 01:38:38;;;;;;;13.32;11.63;;;20.30;99.90;;;;;;5072375;28;20036;-77
2022/06/03 01:41:21;;;;;;;14.77;12.02;;;20.30;99.90;;;;;;5071990;28;20032;-76
2022/06/03 01:44:14;;;;;;;17.88;11.95;;;20.20;99.90;;;;;;5074068;28;20098;-78
2022/06/03 01:46:44;;;;;;;14.13;11.90;;;20.00;99.90;;;;;;5071664;28;20028;-76
2022/06/03 01:49:43;;;;;;;20.52;13.77;;;19.90;99.90;;;;;;5074831;28;20036;-77
2022/06/03 01:52:29;;;;;;;18.05;12.15;;;20.00;99.90;;;;;;5071173;28;20078;-77
2022/06/03 01:55:07;;;;;;;14.90;11.73;;;20.10;99.90;;;;;;5071943;28;20029;-77
2022/06/03 01:57:57;;;;;;;16.60;11.95;;;20.30;99.90;;;;;;5073221;28;20387;-77
2022/06/03 02:00:34;;;;;;;28.55;13.13;;;20.20;99.90;;;;;;5068193;28;20395;-77
2022/06/03 02:03:24;;;;;;;15.95;12.23;;;20.20;99.90;;;;;;5083798;28;20075;-77
2022/06/03 02:06:15;;;;;;;15.60;12.90;;;20.20;99.90;;;;;;5065658;28;20031;-78
2022/06/03 02:09:09;;;;;;;15.20;11.02;;;20.30;99.90;;;;;;5072416;28;20283;-78
2022/06/03 02:11:37;;;;;;;18.83;12.98;;;20.30;99.90;;;;;;5073226;28;20028;-77
2022/06/03 02:14:09;;;;;;;18.20;11.57;;;20.20;99.90;;;;;;5072222;28;20028;-77
2022/06/03 02:17:07;;;;;;;14.10;11.88;;;20.10;99.90;;;;;;5072309;28;20113;-77
2022/06/03 02:19:53;;;;;;;15.85;11.15;;;20.00;99.90;;;;;;5064961;28;20044;-77
2022/06/03 02:22:56;;;;;;;16.98;11.48;;;19.90;99.90;;;;;;5071401;28;20037;-76
2022/06/03 02:25:34;;;;;;;14.10;10.40;;;20.10;99.90;;;;;;5072121;28;20082;-77
2022/06/03 02:28:23;;;;;;;19.77;11.95;;;20.20;99.90;;;;;;5071175;28;20039;-77
2022/06/03 02:31:07;;;;;;;19.35;10.90;;;20.30;99.90;;;;;;5071333;28;20045;-77
2022/06/03 02:33:57;;;;;;;13.95;9.55;;;20.30;99.90;;;;;;5070819;28;20040;-77
2022/06/03 02:36:45;;;;;;;15.38;10.35;;;20.30;99.90;;;;;;5070253;28;20482;-77
2022/06/03 02:39:44;;;;;;;16.40;10.75;;;20.30;99.90;;;;;;5072457;28;20507;-77
2022/06/03 02:42:18;;;;;;;13.95;10.43;;;20.30;99.90;;;;;;5072646;28;20048;-76
2022/06/03 02:44:46;;;;;;;15.00;9.38;;;20.30;99.90;;;;;;5072109;28;20556;-77
2022/06/03 02:47:33;;;;;;;14.05;9.70;;;20.20;99.90;;;;;;5072045;28;20108;-77
2022/06/03 02:50:38;;;;;;;16.33;9.95;;;20.10;99.90;;;;;;5071354;28;20036;-77
2022/06/03 02:53:35;;;;;;;;;;;19.70;99.90;;;;;;5069378;28;20437;-76
2022/06/03 02:56:52;;;;;;;15.20;10.57;;;19.60;99.90;;;;;;5070651;28;19908;-76
2022/06/03 02:59:24;;;;;;;16.05;11.77;;;19.70;99.90;;;;;;4995161;28;20077;-77
2022/06/03 03:02:18;;;;;;;16.88;10.90;;;19.90;99.90;;;;;;5062815;28;20138;-76
2022/06/03 03:04:44;;;;;;;14.73;12.55;;;20.10;99.90;;;;;;5065569;28;20036;-76
2022/06/03 03:07:18;;;;;;;16.45;12.20;;;20.30;99.90;;;;;;5067088;28;20029;-76
2022/06/03 03:10:00;;;;;;;16.20;11.27;;;20.20;99.90;;;;;;5068421;28;20024;-76
2022/06/03 03:12:39;;;;;;;19.45;12.07;;;20.10;99.90;;;;;;5063906;28;20028;-77
2022/06/03 03:15:16;;;;;;;18.83;10.75;;;20.10;99.90;;;;;;5068506;28;20097;-76
2022/06/03 03:18:12;;;;;;;15.68;10.85;;;20.10;99.90;;;;;;5057953;28;20041;-76
2022/06/03 03:20:56;;;;;;;17.33;11.23;;;20.10;99.90;;;;;;5062662;28;20039;-76
2022/06/03 03:23:34;;;;;;;19.02;11.60;;;20.20;99.90;;;;;;5064118;28;20387;-76
2022/06/03 03:26:33;;;;;;;15.02;11.95;;;20.30;99.90;;;;;;5067307;28;20078;-76
2022/06/03 03:29:10;;;;;;;18.48;11.07;;;20.40;99.90;;;;;;5067156;28;20119;-75
2022/06/03 03:31:51;;;;;;;15.52;11.73;;;20.40;99.90;;;;;;5066041;28;20359;-76
2022/06/03 03:34:47;;;;;;;16.55;12.85;;;20.50;99.90;;;;;;5066262;28;20111;-77
2022/06/03 03:38:00;;;;;;;15.27;12.15;;;20.40;99.90;;;;;;5061549;28;20041;-77
2022/06/03 03:40:50;;;;;;;16.92;11.77;;;20.50;99.90;;;;;;4964431;28;20047;-76
2022/06/03 03:43:46;;;;;;;20.20;12.15;;;20.40;99.90;;;;;;4962384;28;20042;-76
2022/06/03 03:46:17;;;;;;;18.83;12.18;;;20.40;99.90;;;;;;5041706;28;20067;-76
2022/06/03 03:49:01;;;;;;;15.88;11.98;;;20.40;99.90;;;;;;5065135;28;20032;-76
2022/06/03 03:51:45;;;;;;;;;;;20.40;99.90;;;;;;5064054;28;20107;-76
2022/06/03 03:54:38;;;;;;;19.02;11.93;;;20.40;99.90;;;;;;5065600;28;20445;-76
2022/06/03 03:57:34;;;;;;;17.23;12.23;;;20.50;99.90;;;;;;5064684;28;20035;-76
2022/06/03 04:00:30;;;;;;;14.43;11.00;;;20.40;99.90;;;;;;5065540;28;20040;-76
2022/06/03 04:03:14;;;;;;;18.40;12.20;;;20.30;99.90;;;;;;5064060;28;20039;-77
2022/06/03 04:05:47;;;;;;;;;;;20.30;99.90;;;;;;5062836;28;20107;-76
2022/06/03 04:08:18;;;;;;;17.83;12.98;;;20.30;99.90;;;;;;5066128;28;19908;-77
2022/06/03 04:11:01;;;;;;;16.52;14.43;;;20.20;99.90;;;;;;5066183;28;20033;-76
2022/06/03 04:13:35;;;;;;;16.63;14.27;;;20.00;99.90;;;;;;5067866;28;20115;-76
2022/06/03 04:16:39;;;;;;;19.55;14.00;;;20.00;99.90;;;;;;5064309;28;20039;-73
2022/06/03 04:19:10;;;;;;;20.63;12.57;;;19.80;99.90;;;;;;5067526;28;20067;-76
2022/06/03 04:22:00;;;;;;;18.42;12.73;;;19.80;99.90;;;;;;5065756;28;20123;-76
2022/06/03 04:24:34;;;;;;;14.52;12.80;;;19.60;99.90;;;;;;5065066;28;20571;-76
2022/06/03 04:27:18;;;;;;;15.48;12.30;;;19.50;99.90;;;;;;5064693;28;20036;-77
2022/06/03 04:30:21;;;;;;;17.85;12.30;;;19.60;99.90;;;;;;5065549;28;20051;-76
2022/06/03 04:33:07;;;;;;;16.30;11.10;;;19.70;99.90;;;;;;5065668;28;20044;-76
2022/06/03 04:35:45;;;;;;;20.95;11.82;;;19.80;99.90;;;;;;5063803;28;20067;-76
2022/06/03 04:38:32;;;;;;;24.75;12.82;;;19.70;99.90;;;;;;5066533;28;20503;-77
2022/06/03 04:41:35;;;;;;;26.50;13.73;;;19.70;99.90;;;;;;5059988;28;20041;-76
2022/06/03 04:44:38;;;;;;;16.75;11.27;;;19.80;99.90;;;;;;5066589;28;20032;-76
2022/06/03 04:47:19;;;;;;;13.68;11.40;;;19.60;99.90;;;;;;5066640;28;20032;-76
2022/06/03 04:49:56;;;;;;;16.38;11.65;;;19.70;99.90;;;;;;5065250;28;20508;-76
2022/06/03 04:52:56;;;;;;;21.48;11.93;;;19.80;99.90;;;;;;5067494;28;20028;-76
2022/06/03 04:55:44;;;;;;;19.35;11.77;;;19.90;99.90;;;;;;5064874;28;20520;-77
2022/06/03 04:58:16;;;;;;;20.15;12.20;;;20.00;99.90;;;;;;5068567;28;20104;-76
2022/06/03 05:01:09;;;;;;;14.07;11.25;;;20.10;99.90;;;;;;5065348;28;20364;-76
2022/06/03 05:03:59;;;;;;;16.50;10.93;;;20.20;99.90;;;;;;5063423;28;20087;-77
2022/06/03 05:06:49;;;;;;;15.35;11.95;;;20.40;99.90;;;;;;5061986;28;20079;-76
2022/06/03 05:09:56;;;;;;;15.30;11.15;;;20.50;99.90;;;;;;5067052;28;20532;-77
2022/06/03 05:12:28;;;;;;;16.35;11.60;;;20.60;99.90;;;;;;5030701;28;20048;-77
2022/06/03 05:15:05;;;;;;;14.57;11.00;;;20.60;99.90;;;;;;5064641;28;20028;-77
2022/06/03 05:17:49;;;;;;;20.00;12.63;;;20.60;99.90;;;;;;5063327;28;20090;-76
2022/06/03 05:20:59;;;;;;;19.42;12.07;;;20.50;99.90;;;;;;5062189;28;20036;-76
2022/06/03 05:23:25;;;;;;;19.92;11.50;;;20.70;99.90;;;;;;5062291;28;20640;-76
2022/06/03 05:26:13;;;;;;;14.75;11.05;;;20.70;99.90;;;;;;5062016;28;20036;-76
2022/06/03 05:28:50;;;;;;;14.95;12.10;;;20.70;99.90;;;;;;5065328;28;20024;-76
2022/06/03 05:31:43;;;;;;;13.80;11.65;;;20.80;99.90;;;;;;5064102;28;20406;-76
2022/06/03 05:34:24;;;;;;;14.77;11.95;;;20.80;99.90;;;;;;5064571;28;20044;-75
2022/06/03 05:37:17;;;;;;;15.20;12.38;;;20.90;99.90;;;;;;5060845;28;20501;-76
2022/06/03 05:39:48;;;;;;;13.70;11.13;;;21.00;99.90;;;;;;5061833;28;20055;-75
2022/06/03 05:42:29;;;;;;;18.23;11.70;;;20.90;99.90;;;;;;5066649;28;20048;-76
2022/06/03 05:45:09;;;;;;;17.58;12.57;;;21.00;99.90;;;;;;5062744;28;20067;-76
2022/06/03 05:47:47;;;;;;;14.20;11.73;;;21.10;99.90;;;;;;5066432;28;20490;-76
2022/06/03 05:50:22;;;;;;;14.45;11.68;;;21.30;99.90;;;;;;5061586;28;20050;-77
2022/06/03 05:53:18;;;;;;;18.92;12.80;;;21.40;99.90;;;;;;5066125;28;20475;-76
2022/06/03 05:56:03;;;;;;;15.02;13.30;;;21.50;99.90;;;;;;5069684;28;20036;-76
2022/06/03 05:58:53;;;;;;;19.50;13.35;;;21.70;99.90;;;;;;5068512;28;20029;-76
2022/06/03 06:01:41;;;;;;;16.88;13.27;;;21.80;99.90;;;;;;5069776;28;20045;-76
2022/06/03 06:04:43;;;;;;;16.88;12.82;;;21.90;99.90;;;;;;5065517;28;21236;-76
2022/06/03 06:07:15;;;;;;;19.73;14.13;;;21.90;99.90;;;;;;5048891;28;20414;-75
2022/06/03 06:09:56;;;;;;;17.40;12.75;;;21.80;99.90;;;;;;5067922;28;20032;-76
2022/06/03 06:12:46;;;;;;;14.32;12.75;;;21.90;99.90;;;;;;5066382;28;20039;-75
2022/06/03 06:15:34;;;;;;;14.35;12.27;;;21.80;99.90;;;;;;5061203;28;20063;-76
2022/06/03 06:18:00;;;;;;;15.05;11.85;;;21.60;99.90;;;;;;5064870;28;20036;-75
2022/06/03 06:20:46;;;;;;;15.73;12.93;;;21.60;99.90;;;;;;5065481;28;20048;-76
2022/06/03 06:23:29;;;;;;;14.77;11.90;;;21.70;99.90;;;;;;5063626;28;20032;-75
2022/06/03 06:26:29;;;;;;;15.25;12.57;;;21.70;99.90;;;;;;5065716;28;20025;-76
2022/06/03 06:29:32;;;;;;;16.83;12.50;;;21.80;99.90;;;;;;5066121;28;20048;-75
2022/06/03 06:32:28;;;;;;;18.48;11.82;;;21.70;99.90;;;;;;5063755;28;20035;-76
2022/06/03 06:35:30;;;;;;;15.57;12.15;;;21.90;99.90;;;;;;5062081;28;21130;-76
2022/06/03 06:38:21;;;;;;;15.45;12.55;;;22.00;99.90;;;;;;5061641;28;20032;-76
2022/06/03 06:41:18;;;;;;;16.55;11.98;;;22.20;99.90;;;;;;5061378;28;20037;-77
2022/06/03 06:44:08;;;;;;;18.73;12.70;;;22.10;99.90;;;;;;5056744;28;20064;-76
2022/06/03 06:46:43;;;;;;;21.35;12.82;;;22.10;99.90;;;;;;5065566;28;20089;-76
2022/06/03 06:49:08;;;;;;;16.92;12.20;;;22.20;99.90;;;;;;5062095;28;20059;-76
2022/06/03 06:52:06;;;;;;;15.85;12.98;;;22.20;99.90;;;;;;5063793;28;20044;-76
2022/06/03 06:54:51;;;;;;;16.55;12.23;;;22.40;99.90;;;;;;5043486;28;20071;-76
2022/06/03 06:57:20;;;;;;;15.27;12.63;;;22.40;99.90;;;;;;5064438;28;20075;-76
2022/06/03 06:59:55;;;;;;;14.30;11.50;;;22.60;99.90;;;;;;5068576;28;20426;-77
2022/06/03 07:02:37;;;;;;;13.57;11.25;;;22.60;99.90;;;;;;5061034;28;20060;-74
2022/06/03 07:05:29;;;;;;;13.98;11.65;;;22.60;99.90;;;;;;5061971;28;20034;-74
2022/06/03 07:08:03;;;;;;;18.98;12.20;;;22.70;99.90;;;;;;5059197;28;20072;-73
2022/06/03 07:10:47;;;;;;;16.83;13.13;;;22.60;99.90;;;;;;5062344;28;20032;-73
2022/06/03 07:13:17;;;;;;;18.15;11.15;;;22.60;99.90;;;;;;5059098;28;20090;-73
2022/06/03 07:16:01;;;;;;;17.13;12.63;;;22.60;99.90;;;;;;5062380;28;20063;-75
2022/06/03 07:22:04;;;;;;;14.95;13.43;;;22.70;99.90;;;;;;5062792;28;20525;-73
2022/06/03 07:24:42;;;;;;;18.45;12.45;;;22.60;99.90;;;;;;5056826;28;20385;-75
2022/06/03 07:27:35;;;;;;;21.52;11.82;;;22.70;99.90;;;;;;5058548;28;20061;-75
2022/06/03 07:30:26;;;;;;;15.18;12.43;;;22.80;99.90;;;;;;5060808;28;20045;-73
2022/06/03 07:33:14;;;;;;;18.42;12.50;;;22.80;99.90;;;;;;5069809;28;20142;-74
2022/06/03 07:35:50;;;;;;;18.35;12.52;;;22.90;99.90;;;;;;5061612;28;20029;-74
2022/06/03 07:38:45;;;;;;;18.58;13.73;;;23.10;99.90;;;;;;5061532;28;20100;-75
2022/06/03 07:41:26;;;;;;;15.77;12.23;;;23.10;99.90;;;;;;5057913;28;20028;-76
2022/06/03 07:44:07;;;;;;;15.88;11.60;;;23.50;99.90;;;;;;5061788;28;20436;-75
2022/06/03 07:46:54;;;;;;;13.82;12.13;;;23.80;99.90;;;;;;5063315;28;20036;-77
2022/06/03 07:49:22;;;;;;;16.73;12.70;;;23.80;99.90;;;;;;5061448;28;20436;-76
2022/06/03 07:51:53;;;;;;;15.13;12.05;;;23.80;99.90;;;;;;5060938;28;20040;-75
2022/06/03 07:54:28;;;;;;;15.65;11.13;;;23.50;99.90;;;;;;5060940;28;20055;-78
2022/06/03 07:57:07;;;;;;;15.15;12.52;;;23.60;99.90;;;;;;5064469;28;20041;-77
2022/06/03 07:59:35;;;;;;;15.60;11.70;;;23.70;99.90;;;;;;5057951;28;20028;-75
2022/06/03 08:02:18;;;;;;;14.57;11.52;;;23.60;99.90;;;;;;5056590;28;20052;-77
2022/06/03 08:04:48;;;;;;;16.65;11.77;;;23.70;99.90;;;;;;5063193;28;20071;-77
2022/06/03 08:13:07;;;;;;;14.57;10.50;;;23.60;99.90;;;;;;5056385;28;20035;-75
2022/06/03 08:15:39;;;;;;;15.88;10.93;;;23.80;99.90;;;;;;5056854;28;20081;-76
2022/06/03 08:18:06;;;;;;;14.13;11.63;;;23.80;99.90;;;;;;5059592;28;20046;-76
2022/06/03 08:20:45;;;;;;;22.77;12.00;;;23.70;99.90;;;;;;5059955;28;20554;-76
2022/06/03 08:23:11;;;;;;;13.43;10.40;;;23.90;99.90;;;;;;5060113;28;20028;-75
2022/06/03 08:25:42;;;;;;;15.35;11.73;;;24.00;99.90;;;;;;5061846;28;20036;-75
2022/06/03 08:28:13;;;;;;;14.35;10.57;;;24.00;99.90;;;;;;5062706;28;20363;-74
2022/06/03 08:30:40;;;;;;;18.98;11.05;;;24.10;99.90;;;;;;5060677;28;20037;-77
2022/06/03 08:33:10;;;;;;;13.05;9.88;;;24.20;99.90;;;;;;5062247;28;20452;-75
2022/06/03 08:35:42;;;;;;;11.38;10.07;;;24.20;99.90;;;;;;5059984;28;20964;-75
2022/06/03 08:38:10;;;;;;;14.07;10.40;;;24.10;99.90;;;;;;5061917;28;20036;-75
2022/06/03 08:40:41;;;;;;;15.48;11.63;;;24.20;99.90;;;;;;5073690;28;20040;-77
2022/06/03 08:43:25;;;;;;;14.85;10.30;;;24.20;99.90;;;;;;5060576;28;20024;-77
2022/06/03 08:46:01;;;;;;;14.40;10.68;;;24.00;99.90;;;;;;5060454;28;20135;-75
2022/06/03 08:48:48;;;;;;;15.50;10.95;;;24.00;99.90;;;;;;5060984;28;20379;-75
2022/06/03 08:51:34;;;;;;;15.02;9.32;;;24.10;99.90;;;;;;5059840;28;20039;-74
2022/06/03 08:54:05;;;;;;;14.88;10.95;;;24.30;99.90;;;;;;5062398;28;20017;-76
2022/06/03 08:56:44;;;;;;;18.08;11.68;;;24.30;99.90;;;;;;5059139;28;20632;-77
2022/06/03 08:59:30;;;;;;;16.42;12.00;;;24.30;99.80;;;;;;5062593;28;20079;-75
2022/06/03 09:02:11;;;;;;;17.60;11.85;;;24.30;99.90;;;;;;5060587;28;20055;-75
2022/06/03 09:04:47;;;;;;;19.10;11.88;;;24.50;99.90;;;;;;5062510;28;20040;-77
2022/06/03 09:07:26;;;;;;;17.83;10.05;;;24.60;99.90;;;;;;5058529;28;20078;-75
2022/06/03 09:10:17;;;;;;;16.50;9.52;;;24.60;99.90;;;;;;5060610;28;20059;-75
2022/06/03 09:12:55;;;;;;;16.75;10.98;;;24.70;99.60;;;;;;5059829;28;20040;-75
2022/06/03 09:15:25;;;;;;;15.13;10.63;;;24.90;99.90;;;;;;5056742;28;20123;-77
2022/06/03 09:18:06;;;;;;;13.68;10.30;;;25.30;99.90;;;;;;5060002;28;20437;-77
2022/06/03 09:20:38;;;;;;;13.93;9.70;;;25.40;99.20;;;;;;5057696;28;20500;-77
2022/06/03 09:23:08;;;;;;;15.68;11.73;;;25.50;99.10;;;;;;5062775;28;20032;-75
2022/06/03 09:25:37;;;;;;;12.65;10.13;;;25.20;98.30;;;;;;5059705;28;20033;-75
2022/06/03 09:28:06;;;;;;;12.63;10.30;;;24.90;99.00;;;;;;5060614;28;20119;-75
2022/06/03 09:30:38;;;;;;;18.17;11.02;;;25.40;98.60;;;;;;5064208;28;20056;-75
2022/06/03 09:33:07;;;;;;;13.07;11.32;;;25.50;98.50;;;;;;5064280;28;20025;-77
2022/06/03 09:35:36;;;;;;;14.02;11.80;;;25.60;98.70;;;;;;5063173;28;20726;-75
2022/06/03 09:38:05;;;;;;;12.73;11.07;;;25.70;98.80;;;;;;5065392;28;20024;-77
2022/06/03 09:40:36;;;;;;;21.52;11.48;;;25.90;98.70;;;;;;5060932;28;20548;-77
2022/06/03 09:43:23;;;;;;;14.88;11.52;;;26.20;98.50;;;;;;5064884;28;20021;-76
2022/06/03 09:45:54;;;;;;;15.55;11.70;;;26.20;98.30;;;;;;5061804;28;20033;-76
2022/06/03 09:48:26;;;;;;;17.45;11.98;;;26.10;97.80;;;;;;5066254;28;20063;-77
2022/06/03 09:50:54;;;;;;;14.50;11.85;;;25.90;97.80;;;;;;5065031;28;20024;-77
2022/06/03 09:53:25;;;;;;;21.42;10.73;;;25.90;98.10;;;;;;5068452;28;20036;-76
2022/06/03 09:55:56;;;;;;;15.73;10.15;;;26.00;98.00;;;;;;5068504;28;20024;-75
2022/06/03 09:58:27;;;;;;;13.73;10.40;;;26.10;97.50;;;;;;5068918;28;20109;-78
2022/06/03 10:00:55;;;;;;;12.82;11.30;;;26.10;97.40;;;;;;5063539;28;20423;-77
2022/06/03 10:03:24;;;;;;;14.38;11.00;;;26.40;98.10;;;;;;5069577;28;20127;-76
2022/06/03 10:05:53;;;;;;;14.43;10.15;;;26.50;98.10;;;;;;5067639;28;20107;-77
2022/06/03 10:08:22;;;;;;;18.17;11.52;;;27.10;97.90;;;;;;5066837;28;20028;-76
2022/06/03 10:13:37;;;;;;;14.82;11.05;;;27.50;97.10;;;;;;5067014;28;20067;-76
2022/06/03 10:16:05;;;;;;;18.63;11.48;;;27.40;97.80;;;;;;5066179;28;20115;-76
2022/06/03 10:18:42;;;;;;;12.10;10.77;;;27.40;97.30;;;;;;5065141;28;20044;-76
2022/06/03 10:21:08;;;;;;;11.75;10.02;;;27.30;96.70;;;;;;5066819;28;20041;-76
2022/06/03 10:23:40;;;;;;;16.17;9.88;;;27.20;97.60;;;;;;5068086;28;20035;-77
2022/06/03 10:26:06;;;;;;;12.70;10.70;;;27.50;98.20;;;;;;5068501;28;20033;-75
2022/06/03 10:28:40;;;;;;;13.23;11.02;;;27.40;96.80;;;;;;5064571;28;20102;-77
2022/06/03 10:31:12;;;;;;;15.98;10.63;;;27.50;97.70;;;;;;5082568;28;20036;-77
2022/06/03 10:33:38;;;;;;;13.52;9.80;;;28.00;97.60;;;;;;5063327;28;20040;-76
2022/06/03 10:36:05;;;;;;;12.18;10.30;;;27.80;96.70;;;;;;5063079;28;20028;-76
2022/06/03 10:38:35;;;;;;;13.63;10.32;;;28.00;96.40;;;;;;5062460;28;20025;-76
2022/06/03 10:41:08;;;;;;;11.70;10.15;;;28.10;97.00;;;;;;5058257;28;20109;-74
2022/06/03 10:43:36;;;;;;;13.82;11.00;;;28.00;97.00;;;;;;5061492;28;20033;-75
2022/06/03 10:46:17;;;;;;;16.58;10.70;;;28.10;97.20;;;;;;5063546;28;20017;-75
2022/06/03 10:48:44;;;;;;;18.15;10.68;;;28.00;96.70;;;;;;5064064;28;20025;-74
2022/06/03 11:02:43;;;;;;;19.58;11.55;;;27.50;97.00;;;;;;5062413;28;20670;-76
2022/06/03 11:05:14;;;;;;;13.32;9.95;;;27.70;96.80;;;;;;5062782;28;20028;-75
2022/06/03 11:07:41;;;;;;;11.27;10.07;;;27.50;97.10;;;;;;5066351;28;21039;-79
2022/06/03 11:10:06;;;;;;;15.15;10.35;;;27.40;97.30;;;;;;5063406;28;20031;-79
2022/06/03 11:12:32;;;;;;;13.02;10.77;;;27.30;97.50;;;;;;5066715;28;20024;-77
2022/06/03 11:14:58;;;;;;;15.25;9.55;;;26.70;96.70;;;;;;5065402;28;20118;-78
2022/06/03 11:17:40;;;;;;;16.33;10.52;;;26.50;96.50;;;;;;5047562;28;20128;-77
2022/06/03 11:20:30;;;;;;;11.45;8.65;;;26.50;97.10;;;;;;5062063;28;20058;-77
2022/06/03 11:22:56;;;;;;;15.23;10.23;;;26.80;98.00;;;;;;5061689;28;20064;-77
2022/06/03 11:25:27;;;;;;;15.63;9.88;;;26.80;98.10;;;;;;5063990;28;20060;-76
2022/06/03 11:28:05;;;;;;;15.18;10.93;;;26.80;97.50;;;;;;5063615;28;20032;-77
2022/06/03 11:31:16;;;;;;;12.52;10.23;;;26.80;97.60;;;;;;5068063;28;20044;-77
2022/06/03 11:33:46;;;;;;;12.52;9.60;;;26.80;97.90;;;;;;5040823;28;20131;-76
2022/06/03 11:36:16;;;;;;;14.05;9.75;;;26.70;98.30;;;;;;5064479;28;20497;-77
2022/06/03 11:38:51;;;;;;;12.57;9.38;;;26.60;98.60;;;;;;5065950;28;20513;-77
2022/06/03 11:41:34;;;;;;;14.52;10.20;;;26.60;98.70;;;;;;5059309;28;20043;-76
2022/06/03 11:44:11;;;;;;;15.00;9.68;;;26.40;98.60;;;;;;5065833;28;20021;-77
2022/06/03 11:46:47;;;;;;;12.48;10.40;;;26.30;98.60;;;;;;5065850;28;20067;-76
2022/06/03 11:49:17;;;;;;;13.80;10.73;;;26.30;98.50;;;;;;5064486;28;20042;-77
2022/06/03 11:51:45;;;;;;;20.02;10.15;;;26.30;98.10;;;;;;5065764;28;20162;-76
2022/06/03 11:54:14;;;;;;;17.55;10.50;;;26.10;97.90;;;;;;5065554;28;20033;-77
2022/06/03 11:56:41;;;;;;;22.60;11.35;;;26.20;97.80;;;;;;5063863;28;20032;-76
2022/06/03 11:59:22;;;;;;;14.40;10.20;;;26.10;98.40;;;;;;5062267;28;20171;-77
2022/06/03 12:01:51;;;;;;;10.93;8.00;;;26.00;99.00;;;;;;5063418;28;20036;-77
2022/06/03 12:04:40;;;;;;;13.88;9.95;;;26.10;99.90;;;;;;5064479;28;20067;-76
2022/06/03 12:07:20;;;;;;;16.67;9.80;;;26.00;99.90;;;;;;5065901;28;20514;-77
2022/06/03 12:10:04;;;;;;;14.73;10.80;;;25.80;99.90;;;;;;5063086;28;20048;-77
2022/06/03 12:15:35;;;;;;;15.93;10.18;;;25.40;99.70;;;;;;5064306;28;20139;-77
2022/06/03 12:18:06;;;;;;;17.98;10.38;;;25.40;99.90;;;;;;5064441;28;20040;-77
2022/06/03 12:20:32;;;;;;;11.18;9.60;;;25.30;99.90;;;;;;5065135;28;20047;-77
2022/06/03 12:23:11;;;;;;;15.35;9.85;;;25.30;99.90;;;;;;5064878;28;20398;-77
2022/06/03 12:25:41;;;;;;;13.05;10.15;;;25.40;99.90;;;;;;5064323;28;20490;-77
2022/06/03 12:28:27;;;;;;;14.68;9.88;;;25.40;99.90;;;;;;5064020;28;20429;-77
2022/06/03 12:31:11;;;;;;;17.80;10.82;;;25.40;99.90;;;;;;5066461;28;20037;-77
2022/06/03 12:34:03;;;;;;;12.43;9.52;;;25.40;99.90;;;;;;5064951;28;20032;-77
2022/06/03 12:36:38;;;;;;;13.57;8.60;;;25.50;99.90;;;;;;5059044;28;20036;-77
2022/06/03 12:39:09;;;;;;;12.23;8.82;;;25.40;99.90;;;;;;5055472;28;20036;-78
2022/06/03 12:41:44;;;;;;;11.65;8.15;;;25.50;99.90;;;;;;5065132;28;20049;-78
2022/06/03 12:44:35;;;;;;;13.25;8.60;;;25.40;99.90;;;;;;5063196;28;20028;-78
2022/06/03 12:47:27;;;;;;;9.82;8.18;;;25.50;99.90;;;;;;5063518;28;20036;-77
2022/06/03 12:50:06;;;;;;;14.68;10.70;;;25.50;99.90;;;;;;5065717;28;20043;-77
2022/06/03 12:52:33;;;;;;;14.57;10.98;;;25.40;99.90;;;;;;5063062;28;20142;-77
2022/06/03 12:55:04;;;;;;;18.38;10.52;;;25.40;99.90;;;;;;5062915;28;20536;-77
2022/06/03 12:57:43;;;;;;;13.95;10.15;;;25.30;99.90;;;;;;5064813;28;20032;-77
2022/06/03 13:00:18;;;;;;;13.40;9.68;;;25.30;99.90;;;;;;5063306;28;20025;-77
2022/06/03 13:03:02;;;;;;;17.27;10.65;;;25.40;99.90;;;;;;5065638;28;20359;-78
2022/06/03 13:05:41;;;;;;;18.92;11.73;;;25.50;99.90;;;;;;5065978;28;20474;-76
2022/06/03 13:08:28;;;;;;;18.77;11.50;;;25.50;99.90;;;;;;5062680;28;20031;-76
2022/06/03 13:11:05;;;;;;;14.88;11.00;;;25.40;99.90;;;;;;5060982;28;20032;-76
2022/06/03 13:13:32;;;;;;;16.65;12.40;;;25.40;99.90;;;;;;5062544;28;20139;-76
2022/06/03 13:16:17;;;;;;;18.00;12.73;;;25.40;99.90;;;;;;5062265;28;20056;-77
2022/06/03 13:18:46;;;;;;;17.73;12.95;;;25.20;99.90;;;;;;5067775;28;20088;-77
2022/06/03 13:21:13;;;;;;;15.30;12.50;;;25.00;99.90;;;;;;5048677;28;20722;-76
2022/06/03 13:23:42;;;;;;;18.45;13.15;;;24.80;99.90;;;;;;5065442;28;20046;-77
2022/06/03 13:26:22;;;;;;;18.13;13.95;;;24.70;99.90;;;;;;5065116;28;20067;-76
2022/06/03 13:28:52;;;;;;;16.20;13.50;;;24.40;99.90;;;;;;5067431;28;20610;-77
2022/06/03 13:31:38;;;;;;;17.98;14.90;;;24.30;99.90;;;;;;5068517;28;20060;-77
2022/06/03 13:34:10;;;;;;;21.58;16.73;;;24.20;99.90;;;;;;5062617;28;20037;-77
2022/06/03 13:36:41;;;;;;;15.02;12.60;;;24.10;99.90;;;;;;5065241;28;20047;-76
2022/06/03 13:39:13;;;;;;;18.42;13.70;;;24.20;99.90;;;;;;5067460;28;20032;-77
2022/06/03 13:44:50;;;;;;;20.23;15.18;;;24.00;99.90;;;;;;5066112;28;20091;-77
2022/06/03 13:47:19;;;;;;;15.73;13.73;;;23.90;99.90;;;;;;5068510;28;20024;-76
2022/06/03 13:49:53;;;;;;;20.13;13.35;;;23.90;99.90;;;;;;5068680;28;20441;-77
2022/06/03 13:52:26;;;;;;;17.02;12.82;;;23.70;99.90;;;;;;5069405;28;20505;-76
2022/06/03 13:55:14;;;;;;;17.17;12.77;;;23.70;99.90;;;;;;5072036;28;20033;-77
2022/06/03 13:57:42;;;;;;;19.13;14.25;;;23.50;99.90;;;;;;5015860;28;20048;-76
2022/06/03 14:00:28;;;;;;;18.30;14.43;;;23.40;99.90;;;;;;5069601;28;20046;-77
2022/06/03 14:03:05;;;;;;;19.08;13.00;;;23.50;99.90;;;;;;5067947;28;20044;-76
2022/06/03 14:05:40;;;;;;;16.20;13.75;;;23.50;99.90;;;;;;5064188;28;20095;-76
2022/06/03 14:08:16;;;;;;;20.33;15.68;;;23.40;99.90;;;;;;5062479;28;20024;-77